Time;durP1;ratioP1;P1;durP2;ratioP2;P2;SDS_P1;SDS_P2;PMS_P1;PMS_P2;Temp;Humidity;BMP_temperature;BMP_pressure;BME280_temperature;BME280_humidity;BME280_pressure;Samples;Min_cycle;Max_cycle;Signal;HPM_P1;HPM_P2
2021/09/17 00:01:11;;;;;;;6.80;4.90;;;17.50;95.70;;;;;;5055161;28;20418;-74
2021/09/17 00:03:37;;;;;;;6.75;5.10;;;17.40;96.00;;;;;;5055110;28;20075;-74
2021/09/17 00:06:03;;;;;;;8.10;4.78;;;17.30;96.10;;;;;;5054725;28;20050;-73
2021/09/17 00:08:29;;;;;;;8.35;5.75;;;17.40;96.30;;;;;;5055273;28;20526;-73
2021/09/17 00:10:54;;;;;;;9.35;5.25;;;17.40;96.20;;;;;;5054958;28;20025;-73
2021/09/17 00:13:20;;;;;;;7.93;5.25;;;17.40;96.20;;;;;;5055147;28;20029;-74
2021/09/17 00:15:46;;;;;;;8.18;5.50;;;17.40;96.50;;;;;;5055413;28;20498;-74
2021/09/17 00:18:12;;;;;;;8.05;4.90;;;17.30;96.50;;;;;;5054865;28;20051;-74
2021/09/17 00:20:38;;;;;;;6.97;4.90;;;17.40;96.00;;;;;;5054850;28;20390;-74
2021/09/17 00:23:03;;;;;;;7.45;4.68;;;17.40;95.90;;;;;;5054767;28;20025;-73
2021/09/17 00:25:29;;;;;;;7.25;4.20;;;17.40;95.80;;;;;;5054702;28;20035;-74
2021/09/17 00:27:55;;;;;;;9.07;4.63;;;17.50;95.40;;;;;;5054940;28;20017;-73
2021/09/17 00:30:23;;;;;;;7.05;4.70;;;17.60;95.20;;;;;;5054587;28;20052;-74
2021/09/17 00:32:48;;;;;;;6.03;4.25;;;17.60;95.40;;;;;;5054484;28;20486;-73
2021/09/17 00:35:14;;;;;;;6.43;4.88;;;17.60;95.40;;;;;;5054768;28;20032;-74
2021/09/17 00:37:40;;;;;;;7.03;4.57;;;17.50;95.00;;;;;;5053240;28;20027;-73
2021/09/17 00:40:06;;;;;;;6.18;4.28;;;17.50;95.30;;;;;;5054698;28;20025;-73
2021/09/17 00:42:35;;;;;;;6.43;4.57;;;17.40;95.70;;;;;;5054921;28;20029;-73
2021/09/17 00:45:02;;;;;;;8.40;4.70;;;17.50;95.70;;;;;;5054317;28;20540;-73
2021/09/17 00:47:28;;;;;;;9.98;5.13;;;17.50;95.80;;;;;;5054301;28;20027;-73
2021/09/17 00:49:54;;;;;;;9.48;5.00;;;17.50;95.60;;;;;;5054170;28;20587;-73
2021/09/17 00:52:20;;;;;;;8.95;5.28;;;17.50;95.50;;;;;;5054072;28;20121;-73
2021/09/17 00:54:45;;;;;;;9.20;5.20;;;17.40;96.00;;;;;;5054109;28;20028;-74
2021/09/17 00:57:12;;;;;;;8.77;5.43;;;17.40;95.90;;;;;;5054041;28;20021;-73
2021/09/17 00:59:38;;;;;;;9.95;5.40;;;17.50;95.80;;;;;;5054280;28;20035;-73
2021/09/17 01:02:04;;;;;;;7.97;5.07;;;17.40;96.00;;;;;;5053967;28;20099;-73
2021/09/17 01:04:30;;;;;;;8.85;5.10;;;17.20;96.00;;;;;;5054018;28;20029;-73
2021/09/17 01:06:56;;;;;;;7.13;4.80;;;17.20;96.40;;;;;;5052458;28;20459;-73
2021/09/17 01:09:22;;;;;;;8.90;5.57;;;17.30;96.10;;;;;;5053890;28;20112;-73
2021/09/17 01:11:48;;;;;;;6.65;5.10;;;17.20;96.00;;;;;;5053776;28;20025;-73
2021/09/17 01:16:58;;;;;;;9.52;5.10;;;17.00;96.60;;;;;;5053584;28;20036;-73
2021/09/17 01:19:24;;;;;;;9.10;5.38;;;17.00;96.70;;;;;;5053677;28;20021;-73
2021/09/17 01:22:02;;;;;;;9.38;5.20;;;17.00;96.80;;;;;;5054164;28;20021;-73
2021/09/17 01:24:28;;;;;;;9.75;5.70;;;17.00;96.70;;;;;;5054099;28;20025;-73
2021/09/17 01:26:54;;;;;;;8.93;5.57;;;17.00;96.70;;;;;;5053804;28;20092;-73
2021/09/17 01:29:21;;;;;;;10.65;5.40;;;16.80;97.40;;;;;;5053519;28;20029;-73
2021/09/17 01:31:47;;;;;;;9.65;5.47;;;16.80;97.20;;;;;;5053387;28;20052;-73
2021/09/17 01:34:17;;;;;;;9.73;5.15;;;16.70;97.50;;;;;;5053427;28;20472;-73
2021/09/17 01:36:43;;;;;;;7.80;5.40;;;16.70;97.80;;;;;;5053427;28;20483;-73
2021/09/17 01:39:09;;;;;;;9.70;5.78;;;16.80;97.30;;;;;;5053396;28;20028;-73
2021/09/17 01:41:35;;;;;;;9.38;5.20;;;16.90;97.50;;;;;;5053319;28;20104;-73
2021/09/17 01:44:01;;;;;;;8.77;5.60;;;16.90;97.60;;;;;;5053339;28;20016;-73
2021/09/17 01:46:27;;;;;;;9.57;5.43;;;16.90;97.20;;;;;;5053263;28;20036;-73
2021/09/17 01:48:52;;;;;;;8.00;5.05;;;16.80;97.30;;;;;;5053233;28;20061;-73
2021/09/17 01:51:19;;;;;;;8.65;4.63;;;16.90;96.70;;;;;;5053498;28;20037;-73
2021/09/17 01:53:44;;;;;;;10.93;4.60;;;16.90;96.60;;;;;;5053063;28;20021;-73
2021/09/17 01:56:11;;;;;;;8.90;4.65;;;16.80;96.40;;;;;;5053669;28;20028;-73
2021/09/17 01:58:37;;;;;;;8.07;4.43;;;16.80;96.40;;;;;;5052998;28;20025;-73
2021/09/17 02:01:03;;;;;;;7.03;4.55;;;16.80;96.10;;;;;;5053100;28;20017;-73
2021/09/17 02:03:29;;;;;;;10.30;4.70;;;16.80;96.20;;;;;;5053095;28;20021;-73
2021/09/17 02:05:55;;;;;;;7.80;4.85;;;16.80;96.20;;;;;;5053057;28;20032;-73
2021/09/17 02:08:21;;;;;;;7.43;4.70;;;16.80;96.10;;;;;;5052896;28;20053;-73
2021/09/17 02:10:48;;;;;;;6.55;4.72;;;16.70;96.10;;;;;;5053054;28;20074;-73
2021/09/17 02:13:19;;;;;;;7.65;5.07;;;16.60;96.00;;;;;;5052942;28;20021;-73
2021/09/17 02:15:46;;;;;;;10.07;4.72;;;16.60;96.40;;;;;;5053336;28;20028;-73
2021/09/17 02:18:12;;;;;;;9.60;4.93;;;16.40;96.50;;;;;;5053247;28;20021;-73
2021/09/17 02:20:38;;;;;;;7.95;4.90;;;16.40;96.30;;;;;;5052991;28;20021;-73
2021/09/17 02:23:04;;;;;;;8.50;4.85;;;16.50;96.00;;;;;;5053169;28;20021;-73
2021/09/17 02:25:29;;;;;;;8.85;5.13;;;16.60;95.80;;;;;;5052907;28;20056;-73
2021/09/17 02:27:55;;;;;;;8.23;5.05;;;16.50;95.80;;;;;;5054116;28;20132;-73
2021/09/17 02:30:21;;;;;;;10.77;5.63;;;16.50;95.90;;;;;;5057183;28;20028;-73
2021/09/17 02:32:47;;;;;;;8.48;4.35;;;16.40;96.10;;;;;;5055487;28;20029;-73
2021/09/17 02:35:13;;;;;;;6.38;4.00;;;16.40;96.30;;;;;;5057305;28;20070;-73
2021/09/17 02:37:39;;;;;;;6.90;4.40;;;16.40;96.30;;;;;;5057277;28;20028;-73
2021/09/17 02:40:06;;;;;;;8.70;4.97;;;16.50;95.90;;;;;;5056974;28;20382;-73
2021/09/17 02:42:32;;;;;;;7.43;4.95;;;16.40;95.40;;;;;;5056608;28;20023;-73
2021/09/17 02:44:58;;;;;;;6.60;4.38;;;16.30;95.90;;;;;;5056551;28;20029;-73
2021/09/17 02:47:24;;;;;;;6.38;4.13;;;16.40;95.90;;;;;;5056864;28;20021;-73
2021/09/17 02:49:50;;;;;;;6.15;3.92;;;16.40;96.00;;;;;;5056527;28;20024;-73
2021/09/17 02:52:16;;;;;;;7.78;3.70;;;16.40;95.50;;;;;;5056385;28;20021;-73
2021/09/17 02:54:41;;;;;;;9.27;4.47;;;16.40;95.00;;;;;;5056435;28;20021;-73
2021/09/17 02:57:07;;;;;;;8.02;4.10;;;16.30;95.10;;;;;;5056443;28;20017;-73
2021/09/17 02:59:33;;;;;;;7.72;3.95;;;16.20;94.90;;;;;;5056784;28;20023;-73
2021/09/17 03:01:58;;;;;;;7.07;3.58;;;16.30;95.00;;;;;;5056299;28;20066;-73
2021/09/17 03:04:24;;;;;;;6.82;4.18;;;16.30;95.40;;;;;;5056267;28;20059;-73
2021/09/17 03:06:50;;;;;;;6.13;3.63;;;16.20;95.10;;;;;;5056202;28;20150;-73
2021/09/17 03:09:15;;;;;;;6.82;4.00;;;16.20;95.20;;;;;;5055991;28;20048;-73
2021/09/17 03:11:41;;;;;;;7.68;4.45;;;16.20;95.20;;;;;;5056105;28;20021;-73
2021/09/17 03:14:07;;;;;;;7.03;3.90;;;16.20;95.10;;;;;;5055966;28;20495;-73
2021/09/17 03:16:33;;;;;;;6.93;4.30;;;16.20;95.60;;;;;;5056009;28;20033;-73
2021/09/17 03:18:58;;;;;;;8.65;4.78;;;16.20;94.90;;;;;;5055933;28;20025;-73
2021/09/17 03:21:25;;;;;;;14.65;6.25;;;16.20;94.80;;;;;;5055801;28;20051;-73
2021/09/17 03:23:51;;;;;;;8.85;4.97;;;15.90;94.90;;;;;;5055863;28;20021;-73
2021/09/17 03:26:17;;;;;;;15.80;6.50;;;15.80;94.90;;;;;;5055785;28;20090;-73
2021/09/17 03:28:42;;;;;;;11.52;7.25;;;16.00;95.40;;;;;;5055775;28;20032;-73
2021/09/17 03:31:08;;;;;;;15.38;7.38;;;16.00;95.70;;;;;;5055760;28;20087;-73
2021/09/17 03:33:34;;;;;;;10.02;6.00;;;16.00;96.40;;;;;;5054335;28;20116;-73
2021/09/17 03:35:59;;;;;;;13.38;6.63;;;15.80;97.60;;;;;;5055662;28;20045;-73
2021/09/17 03:38:25;;;;;;;34.85;7.97;;;16.00;98.00;;;;;;5055579;28;20086;-73
2021/09/17 03:40:51;;;;;;;18.15;7.38;;;16.00;98.60;;;;;;5055096;28;20471;-73
2021/09/17 03:43:17;;;;;;;11.02;5.97;;;15.90;99.00;;;;;;5055502;28;20071;-73
2021/09/17 03:45:42;;;;;;;11.10;6.68;;;15.90;99.10;;;;;;5055781;28;20039;-73
2021/09/17 03:48:12;;;;;;;10.48;5.60;;;15.90;98.60;;;;;;5055985;28;20028;-73
2021/09/17 03:50:39;;;;;;;9.60;5.50;;;15.90;98.80;;;;;;5055370;28;20025;-73
2021/09/17 03:53:05;;;;;;;12.40;5.90;;;16.00;99.10;;;;;;5055805;28;20036;-73
2021/09/17 03:55:32;;;;;;;9.10;5.75;;;15.90;98.90;;;;;;5055814;28;20028;-73
2021/09/17 03:57:59;;;;;;;8.65;5.32;;;15.90;98.70;;;;;;5055189;28;20017;-73
2021/09/17 04:00:25;;;;;;;12.85;5.53;;;15.90;97.80;;;;;;5055457;28;20036;-73
2021/09/17 04:02:50;;;;;;;14.30;5.72;;;15.80;97.30;;;;;;5055505;28;20402;-73
2021/09/17 04:05:16;;;;;;;9.90;5.78;;;15.70;97.20;;;;;;5055119;28;20390;-73
2021/09/17 04:07:43;;;;;;;10.15;5.93;;;15.60;97.40;;;;;;5054906;28;20532;-73
2021/09/17 04:10:11;;;;;;;10.77;5.60;;;15.60;97.40;;;;;;5055056;28;20028;-73
2021/09/17 04:12:37;;;;;;;14.05;6.10;;;15.50;97.50;;;;;;5055205;28;20391;-73
2021/09/17 04:15:03;;;;;;;8.50;5.18;;;15.40;97.60;;;;;;5054881;28;20017;-73
2021/09/17 04:17:29;;;;;;;10.55;5.97;;;15.30;98.10;;;;;;5055454;28;20060;-73
2021/09/17 04:19:55;;;;;;;8.93;5.20;;;15.30;97.90;;;;;;5054829;28;20395;-73
2021/09/17 04:22:21;;;;;;;12.95;5.70;;;15.30;98.00;;;;;;5054808;28;20043;-73
2021/09/17 04:24:47;;;;;;;24.35;6.10;;;15.30;97.80;;;;;;5054756;28;20105;-73
2021/09/17 04:27:12;;;;;;;40.03;7.25;;;15.40;97.70;;;;;;5054989;28;20100;-73
2021/09/17 04:29:38;;;;;;;30.23;6.68;;;15.30;97.60;;;;;;5054717;28;20024;-73
2021/09/17 04:32:05;;;;;;;9.55;6.22;;;15.30;98.20;;;;;;5054525;28;20078;-73
2021/09/17 04:34:31;;;;;;;7.97;4.80;;;15.30;98.20;;;;;;5054500;28;20509;-73
2021/09/17 04:36:56;;;;;;;18.70;5.85;;;15.20;98.40;;;;;;5053225;28;20025;-73
2021/09/17 04:39:22;;;;;;;10.77;5.65;;;15.10;98.30;;;;;;5054479;28;20025;-73
2021/09/17 04:41:48;;;;;;;7.60;5.00;;;15.10;98.50;;;;;;5054664;28;20025;-73
2021/09/17 04:44:13;;;;;;;23.90;5.80;;;15.10;98.20;;;;;;5054377;28;20032;-73
2021/09/17 04:46:39;;;;;;;9.35;4.88;;;15.20;97.80;;;;;;5054585;28;20082;-73
2021/09/17 04:49:05;;;;;;;9.35;4.25;;;15.20;97.90;;;;;;5054351;28;20021;-73
2021/09/17 04:51:31;;;;;;;9.90;4.85;;;15.20;97.50;;;;;;5053174;28;20036;-73
2021/09/17 04:53:57;;;;;;;12.55;4.93;;;15.10;97.40;;;;;;5054099;28;20020;-73
2021/09/17 04:56:23;;;;;;;8.63;4.05;;;14.90;96.90;;;;;;5054124;28;20099;-73
2021/09/17 04:58:49;;;;;;;14.32;4.72;;;15.00;97.00;;;;;;5054017;28;20017;-73
2021/09/17 05:01:15;;;;;;;5.60;4.20;;;14.90;96.70;;;;;;5054020;28;20035;-73
2021/09/17 05:03:41;;;;;;;5.22;3.72;;;14.90;97.20;;;;;;5053987;28;20061;-73
2021/09/17 05:06:07;;;;;;;7.15;4.57;;;15.20;96.50;;;;;;5054240;28;20060;-73
2021/09/17 05:08:32;;;;;;;6.72;4.60;;;15.20;96.70;;;;;;5053679;28;20044;-73
2021/09/17 05:10:58;;;;;;;6.68;4.38;;;15.20;96.50;;;;;;5053868;28;20082;-73
2021/09/17 05:13:24;;;;;;;9.40;4.18;;;15.20;95.50;;;;;;5053727;28;20112;-73
2021/09/17 05:15:49;;;;;;;9.77;5.00;;;15.10;95.40;;;;;;5054342;28;20081;-73
2021/09/17 05:18:15;;;;;;;5.32;3.60;;;14.90;95.60;;;;;;5054000;28;20021;-73
2021/09/17 05:20:41;;;;;;;5.50;4.15;;;14.90;95.90;;;;;;5052419;28;20032;-73
2021/09/17 05:23:07;;;;;;;5.63;4.07;;;14.90;95.80;;;;;;5053604;28;20037;-73
2021/09/17 05:25:33;;;;;;;6.28;4.07;;;14.90;95.90;;;;;;5053844;28;20025;-73
2021/09/17 05:27:58;;;;;;;12.85;4.85;;;14.90;95.80;;;;;;5053560;28;20028;-73
2021/09/17 05:30:24;;;;;;;6.25;4.28;;;14.90;96.00;;;;;;5053486;28;20025;-73
2021/09/17 05:32:50;;;;;;;6.07;4.40;;;14.70;96.60;;;;;;5053405;28;20143;-73
2021/09/17 05:35:16;;;;;;;6.03;4.40;;;14.70;96.30;;;;;;5053458;28;20021;-73
2021/09/17 05:37:42;;;;;;;10.48;4.50;;;14.60;96.60;;;;;;5053668;28;20576;-73
2021/09/17 05:40:09;;;;;;;6.30;3.80;;;14.50;96.90;;;;;;5053407;28;20087;-73
2021/09/17 05:42:35;;;;;;;4.82;3.42;;;14.40;97.20;;;;;;5053267;28;20049;-73
2021/09/17 05:45:01;;;;;;;6.50;4.05;;;14.40;96.90;;;;;;5052019;28;20053;-73
2021/09/17 05:47:26;;;;;;;4.63;3.58;;;14.40;96.80;;;;;;5053276;28;20025;-73
2021/09/17 05:49:52;;;;;;;4.63;3.40;;;14.40;96.50;;;;;;5053753;28;20025;-73
2021/09/17 05:52:18;;;;;;;4.43;3.30;;;14.40;96.50;;;;;;5053183;28;20120;-73
2021/09/17 05:54:44;;;;;;;5.68;3.40;;;14.50;96.10;;;;;;5053212;28;20544;-73
2021/09/17 05:57:10;;;;;;;4.75;3.25;;;14.60;95.50;;;;;;5053150;28;20020;-73
2021/09/17 05:59:36;;;;;;;4.72;3.47;;;14.50;96.00;;;;;;5052832;28;20048;-73
2021/09/17 06:02:03;;;;;;;5.22;3.63;;;14.50;95.90;;;;;;5053129;28;20100;-73
2021/09/17 06:04:29;;;;;;;5.35;3.80;;;14.50;95.90;;;;;;5053538;28;20017;-73
2021/09/17 06:06:54;;;;;;;4.50;3.58;;;14.50;96.00;;;;;;5053171;28;20074;-73
2021/09/17 06:09:20;;;;;;;6.40;4.22;;;14.60;96.10;;;;;;5053051;28;20029;-73
2021/09/17 06:11:46;;;;;;;4.80;3.72;;;14.50;96.30;;;;;;5052991;28;20021;-73
2021/09/17 06:14:11;;;;;;;5.30;3.88;;;14.50;96.60;;;;;;5052898;28;20032;-72
2021/09/17 06:16:37;;;;;;;6.30;4.25;;;14.50;96.50;;;;;;5052957;28;20487;-72
2021/09/17 06:19:03;;;;;;;5.68;4.13;;;14.50;96.10;;;;;;5053515;28;20025;-72
2021/09/17 06:21:30;;;;;;;6.13;4.60;;;14.50;96.10;;;;;;5053168;28;20021;-71
2021/09/17 06:23:56;;;;;;;5.15;3.97;;;14.50;96.10;;;;;;5053413;28;20566;-72
2021/09/17 06:26:22;;;;;;;5.82;4.38;;;14.70;95.70;;;;;;5052856;28;20021;-72
2021/09/17 06:28:48;;;;;;;6.20;4.25;;;14.50;96.00;;;;;;5052857;28;20506;-72
2021/09/17 06:31:14;;;;;;;5.20;4.00;;;14.60;96.00;;;;;;5052821;28;20028;-72
2021/09/17 06:33:40;;;;;;;5.40;4.32;;;14.60;96.10;;;;;;5052728;28;20108;-72
2021/09/17 06:36:05;;;;;;;6.35;4.47;;;14.50;96.40;;;;;;5053314;28;20052;-71
2021/09/17 06:38:31;;;;;;;5.20;4.00;;;14.60;96.50;;;;;;5053074;28;20025;-71
2021/09/17 06:40:57;;;;;;;6.13;4.60;;;14.60;96.70;;;;;;5052796;28;20041;-72
2021/09/17 06:43:23;;;;;;;4.80;3.63;;;14.60;96.70;;;;;;5053004;28;20052;-71
2021/09/17 06:45:48;;;;;;;6.47;4.68;;;14.60;96.80;;;;;;5052699;28;20052;-72
2021/09/17 06:48:16;;;;;;;5.95;4.63;;;14.60;96.60;;;;;;5052671;28;20025;-71
2021/09/17 06:50:43;;;;;;;7.90;3.95;;;14.60;96.90;;;;;;5052644;28;20078;-72
2021/09/17 06:53:08;;;;;;;7.57;4.13;;;14.70;97.00;;;;;;5053044;28;20379;-71
2021/09/17 06:55:34;;;;;;;6.13;4.60;;;14.80;97.00;;;;;;5052853;28;20025;-71
2021/09/17 06:58:02;;;;;;;7.00;4.47;;;14.90;96.80;;;;;;5052758;28;20028;-72
2021/09/17 07:00:31;;;;;;;6.22;3.78;;;15.00;96.60;;;;;;5052471;28;20100;-71
2021/09/17 07:02:58;;;;;;;8.55;4.88;;;15.20;96.30;;;;;;5052527;28;20048;-71
2021/09/17 07:05:25;;;;;;;7.20;4.50;;;15.10;96.20;;;;;;5052495;28;20027;-71
2021/09/17 07:07:51;;;;;;;7.05;4.20;;;15.00;96.60;;;;;;5052619;28;20057;-71
2021/09/17 07:10:18;;;;;;;8.10;4.97;;;15.10;96.70;;;;;;5052428;28;20400;-72
2021/09/17 07:12:45;;;;;;;5.88;4.15;;;15.10;97.00;;;;;;5052366;28;20487;-72
2021/09/17 07:15:12;;;;;;;7.68;5.32;;;15.20;97.30;;;;;;5052686;28;20025;-72
2021/09/17 07:17:40;;;;;;;6.00;4.55;;;15.40;96.70;;;;;;5056343;28;20479;-71
2021/09/17 07:20:06;;;;;;;8.05;5.57;;;15.50;97.00;;;;;;5056012;28;20048;-72
2021/09/17 07:22:32;;;;;;;11.25;6.65;;;15.60;97.00;;;;;;5055911;28;20494;-72
2021/09/17 07:24:58;;;;;;;9.27;6.28;;;15.90;97.00;;;;;;5055897;28;20079;-72
2021/09/17 07:27:23;;;;;;;11.38;7.75;;;15.90;97.00;;;;;;5056121;28;20025;-73
2021/09/17 07:29:49;;;;;;;8.88;6.80;;;15.90;97.30;;;;;;5055818;28;20047;-73
2021/09/17 07:32:15;;;;;;;10.57;7.00;;;16.00;97.40;;;;;;5054360;28;20498;-73
2021/09/17 07:34:41;;;;;;;11.20;6.97;;;16.10;97.40;;;;;;5055758;28;20055;-72
2021/09/17 07:37:06;;;;;;;9.10;6.53;;;16.30;97.30;;;;;;5055694;28;20560;-73
2021/09/17 07:39:32;;;;;;;8.80;6.15;;;16.40;97.40;;;;;;5056175;28;20029;-72
2021/09/17 07:41:58;;;;;;;10.18;7.43;;;16.50;97.60;;;;;;5055544;28;20029;-73
2021/09/17 07:44:24;;;;;;;12.13;7.13;;;16.60;97.60;;;;;;5055833;28;20044;-72
2021/09/17 07:46:49;;;;;;;17.95;8.80;;;16.80;97.90;;;;;;5055472;28;20391;-73
2021/09/17 07:49:15;;;;;;;13.75;8.57;;;16.90;97.90;;;;;;5055750;28;20053;-72
2021/09/17 07:51:41;;;;;;;11.45;7.72;;;17.00;98.10;;;;;;5055405;28;20025;-73
2021/09/17 07:54:06;;;;;;;11.13;8.05;;;17.20;97.80;;;;;;5055580;28;20021;-72
2021/09/17 07:56:32;;;;;;;10.48;7.50;;;17.20;97.70;;;;;;5055595;28;20025;-74
2021/09/17 07:58:58;;;;;;;11.30;7.40;;;17.30;98.10;;;;;;5055203;28;20025;-74
2021/09/17 08:01:23;;;;;;;12.25;8.07;;;17.40;97.90;;;;;;5055769;28;20151;-73
2021/09/17 08:03:49;;;;;;;11.25;8.20;;;17.40;97.50;;;;;;5055439;28;20379;-73
2021/09/17 08:06:15;;;;;;;11.05;7.75;;;17.50;97.50;;;;;;5055108;28;20021;-73
2021/09/17 08:08:41;;;;;;;10.20;7.03;;;17.50;97.40;;;;;;5054877;28;20048;-72
2021/09/17 08:11:07;;;;;;;10.95;8.38;;;17.50;97.90;;;;;;5055351;28;20031;-73
2021/09/17 08:13:33;;;;;;;10.88;7.85;;;17.60;97.40;;;;;;5055210;28;20028;-72
2021/09/17 08:15:59;;;;;;;9.25;7.32;;;17.60;97.50;;;;;;5054972;28;20021;-73
2021/09/17 08:18:25;;;;;;;10.65;7.15;;;17.80;97.80;;;;;;5055137;28;20025;-77
2021/09/17 08:20:53;;;;;;;11.25;7.95;;;18.30;97.10;;;;;;5054845;28;20086;-78
2021/09/17 08:23:20;;;;;;;10.43;7.05;;;18.50;96.20;;;;;;5054807;28;20027;-75
2021/09/17 08:25:47;;;;;;;10.23;6.95;;;18.90;95.40;;;;;;5054532;28;20418;-77
2021/09/17 08:28:12;;;;;;;10.13;7.20;;;19.40;94.30;;;;;;5054720;28;20074;-77
2021/09/17 08:30:38;;;;;;;8.85;6.60;;;19.80;93.40;;;;;;5053393;28;20029;-75
2021/09/17 08:33:04;;;;;;;8.38;6.00;;;20.00;92.80;;;;;;5053239;28;20025;-77
2021/09/17 08:35:30;;;;;;;6.38;4.78;;;20.20;92.00;;;;;;5055169;28;20025;-74
2021/09/17 08:37:55;;;;;;;6.78;4.38;;;20.80;91.20;;;;;;5054832;28;20021;-72
2021/09/17 08:40:21;;;;;;;6.50;4.47;;;21.30;89.40;;;;;;5054755;28;20479;-74
2021/09/17 08:42:47;;;;;;;6.57;4.45;;;21.70;86.80;;;;;;5054440;28;20013;-74
2021/09/17 08:45:13;;;;;;;6.35;4.07;;;22.00;85.70;;;;;;5054661;28;20028;-74
2021/09/17 08:47:39;;;;;;;5.03;3.55;;;22.20;84.40;;;;;;5053019;28;20441;-73
2021/09/17 08:50:06;;;;;;;5.68;3.60;;;22.30;83.00;;;;;;5054271;28;20033;-72
2021/09/17 08:52:31;;;;;;;4.30;3.17;;;22.60;82.20;;;;;;5054175;28;20511;-74
2021/09/17 08:54:58;;;;;;;4.65;3.30;;;22.90;79.30;;;;;;5054436;28;20116;-75
2021/09/17 08:57:24;;;;;;;4.25;3.20;;;23.10;79.50;;;;;;5054128;28;20021;-74
2021/09/17 08:59:50;;;;;;;5.05;2.92;;;23.30;78.10;;;;;;5054008;28;20066;-73
2021/09/17 09:02:29;;;;;;;2.63;1.65;;;23.70;75.70;;;;;;5054256;28;20483;-73
2021/09/17 09:04:58;;;;;;;2.07;1.60;;;23.70;73.00;;;;;;5054390;28;20017;-73
2021/09/17 09:07:38;;;;;;;1.83;1.67;;;24.30;69.00;;;;;;5053971;28;20049;-74
2021/09/17 09:10:11;;;;;;;1.75;1.65;;;24.80;67.30;;;;;;5054256;28;20021;-75
2021/09/17 09:12:45;;;;;;;1.52;1.42;;;25.00;67.70;;;;;;5054316;28;20024;-74
2021/09/17 09:15:24;;;;;;;3.75;1.65;;;25.10;67.00;;;;;;5054182;28;20085;-75
2021/09/17 09:17:52;;;;;;;1.83;1.65;;;25.00;68.50;;;;;;5054174;28;20456;-75
2021/09/17 09:20:27;;;;;;;3.60;1.60;;;24.80;68.10;;;;;;5053732;28;20022;-73
2021/09/17 09:23:04;;;;;;;3.80;1.50;;;24.90;67.80;;;;;;5053992;28;20056;-73
2021/09/17 09:25:30;;;;;;;2.53;1.27;;;25.10;65.10;;;;;;5053635;28;20053;-76
2021/09/17 09:28:17;;;;;;;1.58;0.98;;;25.50;65.10;;;;;;5053654;28;20084;-73
2021/09/17 09:30:43;;;;;;;1.65;1.13;;;25.70;62.70;;;;;;5053558;28;20110;-76
2021/09/17 09:33:22;;;;;;;4.30;1.25;;;26.10;62.50;;;;;;5053436;28;20029;-77
2021/09/17 09:35:59;;;;;;;1.45;1.13;;;26.30;61.20;;;;;;5053509;28;20550;-74
2021/09/17 09:38:30;;;;;;;2.90;1.35;;;26.20;60.50;;;;;;5053462;28;20025;-72
2021/09/17 09:41:00;;;;;;;1.52;1.08;;;26.20;60.00;;;;;;5053486;28;20043;-74
2021/09/17 09:43:34;;;;;;;2.13;1.10;;;26.40;58.90;;;;;;5054215;28;20029;-77
2021/09/17 09:46:20;;;;;;;2.03;1.42;;;26.20;57.50;;;;;;5053652;28;20100;-74
2021/09/17 09:49:05;;;;;;;5.00;1.58;;;26.20;57.90;;;;;;5053598;28;20098;-73
2021/09/17 09:51:55;;;;;;;2.75;1.20;;;26.10;57.30;;;;;;5053212;28;20025;-76
2021/09/17 09:54:23;;;;;;;1.75;1.25;;;26.20;57.50;;;;;;5053703;28;20124;-73
2021/09/17 09:56:51;;;;;;;1.23;1.00;;;26.20;57.70;;;;;;5053170;28;20025;-73
2021/09/17 09:59:22;;;;;;;0.95;0.88;;;26.30;58.50;;;;;;5053649;28;20032;-75
2021/09/17 10:01:48;;;;;;;1.80;0.60;;;26.30;56.60;;;;;;5053192;28;20078;-73
2021/09/17 10:04:16;;;;;;;1.52;0.93;;;26.20;55.20;;;;;;5053076;28;20499;-75
2021/09/17 10:06:42;;;;;;;0.80;0.68;;;26.00;55.40;;;;;;5053377;28;20024;-72
2021/09/17 10:09:09;;;;;;;1.40;0.70;;;25.90;55.40;;;;;;5052669;28;20053;-72
2021/09/17 10:11:36;;;;;;;0.75;0.63;;;25.80;55.90;;;;;;5053353;28;20059;-75
2021/09/17 10:14:04;;;;;;;1.15;0.88;;;25.80;55.90;;;;;;5052951;28;20033;-73
2021/09/17 10:16:31;;;;;;;1.52;0.70;;;25.60;56.50;;;;;;5053301;28;20491;-74
2021/09/17 10:18:58;;;;;;;2.10;0.90;;;25.40;57.70;;;;;;5052977;28;20021;-75
2021/09/17 10:21:45;;;;;;;0.90;0.75;;;25.20;57.10;;;;;;5052955;28;20024;-76
2021/09/17 10:24:26;;;;;;;0.73;0.73;;;24.90;58.90;;;;;;5053155;28;20033;-74
2021/09/17 10:27:13;;;;;;;2.90;0.82;;;24.80;59.30;;;;;;5053146;28;20029;-73
2021/09/17 10:29:42;;;;;;;1.90;0.85;;;24.70;58.70;;;;;;5052899;28;20399;-72
2021/09/17 10:32:26;;;;;;;1.95;0.88;;;24.40;60.10;;;;;;5052836;28;20398;-74
2021/09/17 10:35:15;;;;;;;0.65;0.65;;;24.10;61.10;;;;;;5051526;28;20033;-75
2021/09/17 10:37:59;;;;;;;2.13;0.70;;;23.90;61.20;;;;;;5053064;28;20017;-73
2021/09/17 10:40:54;;;;;;;0.60;0.50;;;23.80;60.30;;;;;;5053013;28;20021;-72
2021/09/17 10:43:28;;;;;;;1.92;0.95;;;23.70;62.00;;;;;;5046040;28;20033;-77
2021/09/17 10:45:59;;;;;;;1.27;0.90;;;23.60;61.10;;;;;;5053008;28;20029;-72
2021/09/17 10:48:52;;;;;;;1.23;0.90;;;23.40;64.50;;;;;;5053098;28;20043;-73
2021/09/17 10:51:38;;;;;;;1.58;0.98;;;23.30;62.50;;;;;;5049428;28;20116;-73
2021/09/17 10:54:16;;;;;;;1.90;1.10;;;23.20;62.00;;;;;;5057041;28;20356;-75
2021/09/17 10:56:48;;;;;;;1.27;1.15;;;23.10;64.60;;;;;;5056474;28;20021;-74
2021/09/17 10:59:27;;;;;;;2.47;1.25;;;23.10;65.50;;;;;;5056557;28;20017;-75
2021/09/17 11:02:03;;;;;;;1.55;0.90;;;22.90;64.60;;;;;;5056922;28;20021;-74
2021/09/17 11:04:31;;;;;;;1.95;1.08;;;22.70;66.40;;;;;;5056289;28;20016;-74
2021/09/17 11:07:22;;;;;;;0.90;0.90;;;22.70;66.80;;;;;;5055979;28;20040;-72
2021/09/17 11:09:57;;;;;;;1.80;1.20;;;22.70;65.90;;;;;;5056178;28;20025;-73
2021/09/17 11:12:27;;;;;;;5.78;1.35;;;22.60;68.50;;;;;;5056380;28;20060;-74
2021/09/17 11:15:17;;;;;;;2.20;1.38;;;22.50;68.90;;;;;;5056130;28;20100;-75
2021/09/17 11:17:50;;;;;;;;;;;22.40;68.90;;;;;;5049350;28;20467;-72
2021/09/17 11:20:27;;;;;;;1.45;1.20;;;22.40;68.90;;;;;;5056039;28;19904;-74
2021/09/17 11:23:01;;;;;;;3.42;1.20;;;22.30;71.10;;;;;;5056267;28;20021;-74
2021/09/17 11:25:41;;;;;;;2.70;1.40;;;22.40;71.80;;;;;;5054955;28;20558;-74
2021/09/17 11:28:27;;;;;;;2.67;1.48;;;22.40;71.10;;;;;;5056399;28;20425;-73
2021/09/17 11:31:06;;;;;;;2.92;1.50;;;22.40;71.50;;;;;;5055840;28;20021;-75
2021/09/17 11:33:31;;;;;;;1.70;1.30;;;22.30;72.10;;;;;;5056041;28;20445;-75
2021/09/17 11:35:57;;;;;;;1.65;1.38;;;22.40;72.80;;;;;;5055961;28;20017;-75
2021/09/17 11:38:23;;;;;;;2.67;1.40;;;22.50;72.20;;;;;;5055706;28;20021;-73
2021/09/17 11:40:52;;;;;;;1.40;1.30;;;22.60;74.00;;;;;;5055627;28;20045;-75
2021/09/17 11:43:18;;;;;;;4.13;1.50;;;22.70;71.30;;;;;;5055566;28;20029;-73
2021/09/17 11:45:49;;;;;;;2.03;1.30;;;22.70;70.90;;;;;;5055541;28;20025;-74
2021/09/17 11:48:23;;;;;;;1.50;1.40;;;22.60;71.60;;;;;;5055458;28;20025;-75
2021/09/17 11:50:50;;;;;;;2.30;1.30;;;22.50;70.90;;;;;;5055714;28;20040;-72
2021/09/17 11:53:16;;;;;;;1.67;1.35;;;22.30;70.70;;;;;;5055624;28;20021;-72
2021/09/17 11:55:42;;;;;;;3.00;1.40;;;22.30;72.20;;;;;;5055358;28;20045;-72
2021/09/17 11:58:08;;;;;;;1.85;1.30;;;22.30;73.70;;;;;;5054922;28;20421;-74
2021/09/17 12:00:33;;;;;;;1.65;0.95;;;22.30;73.40;;;;;;5054948;28;20029;-73
2021/09/17 12:03:03;;;;;;;3.03;1.20;;;22.30;71.70;;;;;;5055255;28;20021;-74
2021/09/17 12:05:30;;;;;;;2.57;1.20;;;22.30;71.50;;;;;;5055198;28;20376;-74
2021/09/17 12:07:56;;;;;;;1.90;1.10;;;22.30;72.10;;;;;;5054893;28;20052;-75
2021/09/17 12:10:28;;;;;;;2.13;1.20;;;22.40;72.50;;;;;;5055339;28;20033;-73
2021/09/17 12:13:04;;;;;;;2.30;1.25;;;22.40;72.30;;;;;;5055002;28;20071;-72
2021/09/17 12:15:33;;;;;;;2.42;1.20;;;22.50;72.00;;;;;;5055260;28;20053;-74
2021/09/17 12:18:04;;;;;;;1.53;1.37;;;22.50;72.60;;;;;;5055277;28;20013;-73
2021/09/17 12:20:56;;;;;;;2.95;1.60;;;22.60;71.80;;;;;;5055206;28;20039;-73
2021/09/17 12:23:39;;;;;;;4.43;1.40;;;22.70;71.20;;;;;;5055162;28;20021;-72
2021/09/17 12:26:34;;;;;;;2.17;1.55;;;22.80;72.30;;;;;;5050776;28;20055;-74
2021/09/17 12:29:08;;;;;;;2.60;1.73;;;23.00;69.40;;;;;;5050903;28;20560;-74
2021/09/17 12:31:40;;;;;;;2.33;1.40;;;22.90;70.90;;;;;;5054417;28;20091;-72
2021/09/17 12:34:22;;;;;;;2.42;1.35;;;22.90;72.20;;;;;;5054926;28;20427;-72
2021/09/17 12:36:53;;;;;;;2.90;1.40;;;22.80;72.80;;;;;;5054567;28;20029;-73
2021/09/17 12:39:24;;;;;;;1.70;1.30;;;22.80;76.00;;;;;;5054765;28;20021;-75
2021/09/17 12:42:10;;;;;;;1.55;1.30;;;23.00;72.80;;;;;;5054524;28;20021;-73
2021/09/17 12:44:44;;;;;;;2.55;1.30;;;23.10;70.50;;;;;;5054726;28;20023;-74
2021/09/17 12:47:10;;;;;;;2.50;1.30;;;23.00;71.80;;;;;;5054654;28;20021;-73
2021/09/17 12:49:36;;;;;;;1.92;1.35;;;23.00;71.20;;;;;;5054319;28;20024;-73
2021/09/17 12:52:06;;;;;;;2.08;1.30;;;22.90;70.90;;;;;;5054287;28;20025;-75
2021/09/17 12:54:36;;;;;;;2.17;1.35;;;23.00;70.70;;;;;;5054458;28;20116;-74